Погода METAR - Абакан

Код аэропорта ICAO:
Кемерово, Абакан, Красноярск, Новосибирск
Код METAR: UNAA 262000Z 15002MPS CAVOK 05/03 Q1028 R02/290060 NOSIG RMK QFE748
TAF UNAA 261652Z 2618/2718 32005G12MPS 7000 -SHRA BKN017CB 
     TEMPO 2618/2624 3200 -SHRA BKN011CB 
     FM270000 29003G10MPS 9999 SCT025
       

Погода - Сейчас

Время: 2019-05-27 03:00, местное
Направление ветра: Юг-юго-восток (150°)
Скорость ветра: 2 м/с
Видимость: более 10км, отсутствие осадков и облаков
Температура: 5°C
Точка росы: 3°C
Атмосферное давление: 1028 гПа

Архив погоды

Время, местное Направление Скорость, м/с Температура, °C Точка росы, °C Давление, гПа
2019-05-27 03:00 ЮЮВ (150°) 2 5 3 1028
2019-05-25 15:00 Ю (170°) 5 19 -3 1017
2019-05-25 07:00 Штиль 0 6 3 1022
2019-05-24 20:30 С (10°) 2 8 4 1019
2019-05-23 16:30 З (270°) 7 14 -1 1012
2019-05-23 05:00 З (270°) 3 7 4 1008
2019-05-21 22:00 ЮЗ (210°) 7 10 6 1005
2019-05-21 21:30 ЮЗ (210°) 7 11 8 1005
2019-05-21 18:00 ЮЗ (210°) 6 13 10 1003
2019-05-21 15:30 ЗЮЗ (240°) 6 18 4 1001
2019-05-21 04:00 ЗСЗ (290°) 1 9 8 1004
2019-05-20 01:30 ВЮВ (110°) 3 11 1 1009
2019-05-19 14:00 ЮЮВ (150°) 4 23 -9 1009
2019-05-18 05:00 Штиль 0 -2 -2 1024
2019-05-17 10:00 В (100°) 2 7 -3 1021
2019-05-16 05:30 ЗСЗ (290°) 3 1 -5 1017
2019-05-13 20:30 ССЗ (330°) 6 4 -5 1010
2019-05-13 19:30 СЗ (320°) 4 5 -5 1010
2019-05-09 18:30 С (360°) 8 8 -12 1018
2019-05-06 09:30 Переменный 1 12 -5 1028
2019-05-06 05:30 Штиль 0 0 -5 1027
2019-05-03 12:00 С (10°) 4 7 -14 1030
2019-05-03 09:30 С (360°) 5 5 -14 1030
2019-05-03 03:30 ССЗ (330°) 4 -4 -11 1026
2019-05-01 17:00 ЗЮЗ (250°) 12 8 -11 1015
2019-05-01 16:30 ЗЮЗ (250°) 13 8 -11 1014
2019-05-01 09:30 З (270°) 10 17 2 1001
2019-04-28 17:00 ЗЮЗ (250°) 10 7 -5 1019
2019-04-28 10:00 ЮЗ (210°) 6 3 0 1018
2019-04-26 18:00 ЗЮЗ (240°) 8 10 -2 1012
2019-04-25 16:00 Ю (190°) 3 14 -5 1006
2019-04-23 11:00 С (10°) 2 6 -9 1022
2019-04-20 20:00 ЮЗ (210°) 5 1 -6 1009
2019-04-19 16:00 ЗЮЗ (240°) 5 1 -15 1026
2019-04-19 03:00 ЗЮЗ (240°) 6 -7 -17 1023
2019-04-17 16:00 ЮЗ (210°) 6 6 -9 1011
2019-04-17 12:30 Ю (190°) 4 4 -6 1014
2019-04-16 12:30 СЗ (310°) 4 1 -8 1005
2019-04-16 00:30 ССЗ (340°) 3 -3 -4 1004
2019-04-14 07:00 ЮЗ (220°) 5 7 -6 1010
2019-04-13 00:00 Штиль 0 1 -7 1021
2019-04-12 10:30 З (280°) 5 6 -14 1024
2019-04-11 10:30 С (10°) 3 0 -14 1026
2019-04-10 20:30 С (10°) 4 5 -4 1017
2019-04-10 02:00 Ю (180°) 3 -3 -8 1014
2019-04-09 08:30 ЗЮЗ (240°) 1 -2 -7 1029
2019-04-08 05:00 З (270°) 1 -3 -8 1029
2019-04-07 11:00 ЗЮЗ (250°) 7 6 -6 1019